Stillwater, Canada
Current Conditions -  °F | °C
As of 3:00 PM on Thursday 23 Oct 2014 (Local Time) from CYPW Reporting Station
Clear Clear  
Wind Chill: 48°   Ceiling: Unl
Heat Index: 48°   Visibility: 20mi
Dew Point: 46°   Wind: 2mph
Humidity: 93%   Direction: 130°SE
Pressure: 29.76"   Gusts: NA
Location:  49.77°N, 124.3°W
Report Text: CYPW 232200Z 13002KT 20SM 09/08 A2976 RMK SLP082
Loading
Personal Weather Stations






























Interactive Weather Map
Tropical Storm Tracking
New forecast layout! Learn more

10-Day Weather Forecast

Advertisements
Track Severe Weather on mobile